createdAt,value
2022-10-29T00:21:53.780Z,17.33
2022-10-29T00:26:21.416Z,15.90
2022-10-29T00:48:52.788Z,16.00
2022-10-29T01:21:44.427Z,19.50
2022-10-29T01:26:30.911Z,13.57
2022-10-29T01:45:37.226Z,15.77
2022-10-29T01:50:07.591Z,17.07
2022-10-29T03:19:04.884Z,24.27
2022-10-29T03:23:30.149Z,19.80
2022-10-29T03:27:55.689Z,17.67
2022-10-29T03:32:21.355Z,30.27
2022-10-29T03:36:46.602Z,12.63
2022-10-29T03:41:11.848Z,16.77
2022-10-29T03:45:37.039Z,23.07
2022-10-29T03:54:27.632Z,22.43
2022-10-29T03:58:52.933Z,16.07
2022-10-29T04:03:18.187Z,23.87
2022-10-29T04:07:43.392Z,17.33
2022-10-29T04:12:09.138Z,11.03
2022-10-29T04:16:34.334Z,10.73
2022-10-29T04:30:42.968Z,21.00
2022-10-29T04:35:08.461Z,15.70
2022-10-29T04:39:33.656Z,14.37
2022-10-29T04:43:58.986Z,15.33
2022-10-29T04:48:28.374Z,14.30
2022-10-29T04:52:53.698Z,15.97
2022-10-29T04:57:18.954Z,21.50
2022-10-29T05:01:44.125Z,14.47
2022-10-29T05:06:09.330Z,12.70
2022-10-29T05:10:38.166Z,15.60
2022-10-29T05:15:03.915Z,21.37
2022-10-29T05:19:29.107Z,25.03
2022-10-29T05:23:54.288Z,12.97
2022-10-29T05:28:21.906Z,16.20
2022-10-29T05:32:47.157Z,16.67
2022-10-29T05:37:12.405Z,27.93
2022-10-29T05:41:37.615Z,18.67
2022-10-29T05:46:06.991Z,18.73
2022-10-29T05:50:33.772Z,16.95
2022-10-29T05:54:58.992Z,14.20
2022-10-29T05:59:24.199Z,16.43
2022-10-29T06:03:49.517Z,12.77
2022-10-29T06:08:15.210Z,18.53
2022-10-29T06:12:40.416Z,20.03
2022-10-29T06:25:59.117Z,12.80
2022-10-29T06:30:24.352Z,12.07
2022-10-29T06:34:49.682Z,10.33
2022-10-29T06:39:14.890Z,8.83
2022-10-29T06:43:40.192Z,16.73
2022-10-29T06:48:06.153Z,12.43
2022-10-29T06:52:31.415Z,13.60
2022-10-29T06:56:56.736Z,15.37
2022-10-29T07:01:23.600Z,17.13
2022-10-29T07:05:57.299Z,16.50
2022-10-29T07:10:22.819Z,21.23
2022-10-29T07:14:48.115Z,36.27
2022-10-29T07:19:13.504Z,22.83
2022-10-29T08:25:45.286Z,40.17
2022-10-29T08:30:13.867Z,32.03
2022-10-29T08:34:39.145Z,32.40
2022-10-29T08:39:04.412Z,28.90
2022-10-29T08:43:47.009Z,20.80
2022-10-29T08:48:27.975Z,22.63
2022-10-29T08:53:21.824Z,30.97
2022-10-29T08:57:55.839Z,28.53
2022-10-29T09:02:21.440Z,27.33
2022-10-29T09:07:04.739Z,21.13
2022-10-29T09:16:37.850Z,28.40
2022-10-29T09:21:33.608Z,33.40
2022-10-29T09:26:06.398Z,31.20
2022-10-29T09:30:41.201Z,21.63
2022-10-29T09:35:14.937Z,23.60
2022-10-29T09:39:47.614Z,27.67
2022-10-29T09:44:38.771Z,28.07
2022-10-29T09:49:15.028Z,33.47
2022-10-29T09:53:40.334Z,31.40
2022-10-29T09:58:06.960Z,35.97
2022-10-29T10:02:46.018Z,29.73
2022-10-29T10:07:17.432Z,27.97
2022-10-29T10:11:50.681Z,23.87
2022-10-29T10:16:24.428Z,30.87
2022-10-29T10:21:32.757Z,25.53
2022-10-29T10:26:03.763Z,20.10
2022-10-29T10:30:30.807Z,23.53
2022-10-29T10:34:56.094Z,30.57
2022-10-29T10:39:34.589Z,17.77
2022-10-29T10:44:05.459Z,19.40
2022-10-29T10:48:33.714Z,18.23
2022-10-29T10:53:07.591Z,12.27
2022-10-29T10:57:54.151Z,18.20
2022-10-29T11:02:50.396Z,17.77
2022-10-29T11:07:17.782Z,9.97
2022-10-29T11:11:47.928Z,20.03
2022-10-29T11:16:49.974Z,17.47
2022-10-29T11:22:07.897Z,13.53
2022-10-29T11:26:41.393Z,13.00
2022-10-29T11:31:17.231Z,13.33
2022-10-29T11:55:17.179Z,13.93
2022-10-29T11:59:57.236Z,11.63
2022-10-29T12:04:54.705Z,16.47
2022-10-29T12:10:07.484Z,11.60
2022-10-29T12:15:04.581Z,14.70
2022-10-29T12:19:57.216Z,14.57
2022-10-29T12:24:58.943Z,16.30
2022-10-29T12:29:46.751Z,19.60
2022-10-29T12:34:55.976Z,18.03
2022-10-29T12:39:33.004Z,20.13
2022-10-29T12:44:30.067Z,19.67
2022-10-29T12:49:28.632Z,21.27
2022-10-29T12:54:24.875Z,16.67
2022-10-29T12:58:53.493Z,15.70
2022-10-29T13:04:42.330Z,21.97
2022-10-29T13:09:21.816Z,16.40
2022-10-29T13:13:55.164Z,14.10
2022-10-29T13:19:05.278Z,18.63
2022-10-29T13:23:31.551Z,16.83
2022-10-29T13:27:56.867Z,13.47
2022-10-29T13:32:38.808Z,10.07
2022-10-29T13:37:45.396Z,12.70
2022-10-29T13:42:13.523Z,12.23
2022-10-29T13:47:04.759Z,8.40
2022-10-29T13:51:45.382Z,11.33
2022-10-29T13:56:19.733Z,8.07
2022-10-29T14:00:46.651Z,11.50
2022-10-29T14:05:14.652Z,12.70
2022-10-29T14:09:58.328Z,16.80
2022-10-29T14:14:58.127Z,11.33
2022-10-29T14:19:23.333Z,8.23
2022-10-29T14:24:04.293Z,11.80
2022-10-29T14:28:31.315Z,14.53
2022-10-29T14:32:56.563Z,11.30
2022-10-29T14:37:40.877Z,16.93
2022-10-29T14:42:21.183Z,20.60
2022-10-29T14:46:58.223Z,12.47
2022-10-29T14:51:24.598Z,15.87
2022-10-29T14:55:50.508Z,12.20
2022-10-29T15:00:26.955Z,16.50
2022-10-29T15:05:03.092Z,15.47
2022-10-29T15:09:33.442Z,11.90
2022-10-29T15:13:59.124Z,23.70
2022-10-29T15:18:26.761Z,21.70
2022-10-29T15:22:57.254Z,17.37
2022-10-29T15:27:24.378Z,16.90
2022-10-29T15:31:53.520Z,23.37
2022-10-29T15:36:18.929Z,20.57
2022-10-29T15:41:20.597Z,20.87
2022-10-29T15:45:58.236Z,19.87
2022-10-29T15:50:41.993Z,23.37
2022-10-29T15:55:31.039Z,15.40
2022-10-29T15:59:57.391Z,17.77
2022-10-29T16:04:22.715Z,20.13
2022-10-29T16:08:51.059Z,18.20
2022-10-29T16:13:18.346Z,22.37
2022-10-29T16:17:43.856Z,26.17
2022-10-29T16:22:28.720Z,22.57
2022-10-29T16:26:53.933Z,24.53
2022-10-29T16:31:23.189Z,17.13
2022-10-29T16:35:48.503Z,19.37
2022-10-29T16:40:13.920Z,21.13
2022-10-29T16:44:41.156Z,16.60
2022-10-29T16:49:06.424Z,26.47
2022-10-29T16:53:31.920Z,21.77
2022-10-29T16:57:57.569Z,22.90
2022-10-29T17:02:23.174Z,30.73
2022-10-29T17:06:49.071Z,24.90
2022-10-29T17:11:14.968Z,29.03
2022-10-29T17:15:41.280Z,31.90
2022-10-29T17:20:07.598Z,28.17
2022-10-29T17:24:32.934Z,20.27
2022-10-29T17:28:58.188Z,26.87
2022-10-29T17:33:23.437Z,30.63
2022-10-29T17:37:48.784Z,23.37
2022-10-29T17:42:14.255Z,21.53
2022-10-29T17:46:39.501Z,19.43
2022-10-29T17:51:04.853Z,26.00
2022-10-29T17:55:30.203Z,27.97
2022-10-29T17:59:55.605Z,26.70
2022-10-29T18:04:20.821Z,40.47
2022-10-29T18:08:46.119Z,33.20
2022-10-29T18:13:11.349Z,26.43
2022-10-29T18:17:36.945Z,28.20
2022-10-29T18:22:02.136Z,23.40
2022-10-29T18:26:32.525Z,24.27
2022-10-29T18:30:58.422Z,24.00
2022-10-29T18:35:23.662Z,22.17
2022-10-29T18:39:48.942Z,33.80
2022-10-29T18:44:14.205Z,24.13
2022-10-29T18:48:42.043Z,20.13
2022-10-29T18:53:07.247Z,22.50
2022-10-29T18:57:33.089Z,24.80
2022-10-29T19:01:58.461Z,20.67
2022-10-29T19:06:27.462Z,26.63
2022-10-29T19:10:52.661Z,22.23
2022-10-29T19:15:17.903Z,18.10
2022-10-29T19:19:43.112Z,22.73
2022-10-29T19:24:13.166Z,24.03
2022-10-29T19:28:39.686Z,20.60
2022-10-29T19:33:08.002Z,21.57
2022-10-29T19:37:34.014Z,25.80
2022-10-29T19:41:59.240Z,25.70
2022-10-29T19:46:24.693Z,27.83
2022-10-29T19:50:55.991Z,26.77
2022-10-29T19:55:21.221Z,26.60
2022-10-29T19:59:46.431Z,21.87
2022-10-29T20:04:11.809Z,34.17
2022-10-29T20:08:37.995Z,25.60
2022-10-29T20:13:03.750Z,23.50
2022-10-29T20:17:31.390Z,25.57
2022-10-29T20:21:56.629Z,32.83
2022-10-29T20:26:22.911Z,23.20
2022-10-29T20:30:48.239Z,20.33
2022-10-29T20:35:13.520Z,21.90
2022-10-29T20:39:38.732Z,28.47
2022-10-29T20:44:04.133Z,26.30
2022-10-29T20:48:30.211Z,17.70
2022-10-29T20:52:55.612Z,21.23
2022-10-29T20:57:20.982Z,29.30
2022-10-29T21:01:46.404Z,30.50
2022-10-29T21:06:16.913Z,37.27
2022-10-29T21:10:42.699Z,28.63
2022-10-29T21:15:08.594Z,25.40
2022-10-29T21:19:33.856Z,33.53
2022-10-29T21:23:59.348Z,29.60
2022-10-29T21:28:24.591Z,31.90
2022-10-29T21:32:50.092Z,25.93
2022-10-29T21:37:15.277Z,25.50
2022-10-29T21:41:40.527Z,25.30
2022-10-29T21:46:06.388Z,25.23
2022-10-29T21:50:31.655Z,27.60
2022-10-29T21:54:56.895Z,23.17
2022-10-29T21:59:22.181Z,26.13
2022-10-29T22:03:48.331Z,37.93
2022-10-29T22:08:13.579Z,25.10
2022-10-29T22:12:38.800Z,30.93
2022-10-29T22:17:04.024Z,25.43
2022-10-29T22:21:29.301Z,34.37
2022-10-29T22:25:54.584Z,33.40
2022-10-29T22:30:19.787Z,32.20
2022-10-29T22:34:45.001Z,33.63
2022-10-29T22:39:10.359Z,28.10
2022-10-29T22:43:35.943Z,25.33
2022-10-29T22:48:01.150Z,30.30
2022-10-29T22:52:26.430Z,28.67
2022-10-29T22:56:51.687Z,27.53
2022-10-29T23:01:26.109Z,29.43
2022-10-29T23:05:59.956Z,28.03
2022-10-29T23:10:25.205Z,32.00
2022-10-29T23:14:50.410Z,32.50
2022-10-29T23:19:15.606Z,26.67
2022-10-29T23:23:40.806Z,40.80
2022-10-29T23:28:06.037Z,33.23
2022-10-29T23:32:31.311Z,34.13
2022-10-29T23:36:57.676Z,36.40
2022-10-29T23:41:23.004Z,25.00
2022-10-29T23:45:48.231Z,30.93
2022-10-29T23:50:13.484Z,27.37
2022-10-29T23:54:38.714Z,21.43
2022-10-29T23:59:03.912Z,35.87
